sensor_id;sensor_type;location;lat;lon;timestamp;P1;durP1;ratioP1;P2;durP2;ratioP2
27857;SDS011;16852;51.446;6.528;2022-12-29T00:00:30;0.73;;;0.50;;
27857;SDS011;16852;51.446;6.528;2022-12-29T00:02:31;1.05;;;0.77;;
27857;SDS011;16852;51.446;6.528;2022-12-29T00:04:31;1.52;;;0.70;;
27857;SDS011;16852;51.446;6.528;2022-12-29T00:06:32;1.00;;;0.90;;
27857;SDS011;16852;51.446;6.528;2022-12-29T00:08:33;0.60;;;0.57;;
27857;SDS011;16852;51.446;6.528;2022-12-29T00:10:39;0.88;;;0.52;;
27857;SDS011;16852;51.446;6.528;2022-12-29T00:12:40;0.73;;;0.68;;
27857;SDS011;16852;51.446;6.528;2022-12-29T00:14:59;2.03;;;0.52;;
27857;SDS011;16852;51.446;6.528;2022-12-29T00:17:19;0.50;;;0.50;;
27857;SDS011;16852;51.446;6.528;2022-12-29T00:19:19;0.57;;;0.50;;
27857;SDS011;16852;51.446;6.528;2022-12-29T00:21:38;0.77;;;0.70;;
27857;SDS011;16852;51.446;6.528;2022-12-29T00:23:58;0.93;;;0.40;;
27857;SDS011;16852;51.446;6.528;2022-12-29T00:26:28;0.70;;;0.70;;
27857;SDS011;16852;51.446;6.528;2022-12-29T00:28:47;0.60;;;0.60;;
27857;SDS011;16852;51.446;6.528;2022-12-29T00:31:07;0.68;;;0.68;;
27857;SDS011;16852;51.446;6.528;2022-12-29T00:33:31;1.75;;;0.60;;
27857;SDS011;16852;51.446;6.528;2022-12-29T00:35:52;0.52;;;0.50;;
27857;SDS011;16852;51.446;6.528;2022-12-29T00:37:57;0.40;;;0.40;;
27857;SDS011;16852;51.446;6.528;2022-12-29T00:40:19;0.40;;;0.40;;
27857;SDS011;16852;51.446;6.528;2022-12-29T00:42:38;0.47;;;0.47;;
27857;SDS011;16852;51.446;6.528;2022-12-29T00:45:02;0.43;;;0.40;;
27857;SDS011;16852;51.446;6.528;2022-12-29T00:47:03;1.67;;;0.50;;
27857;SDS011;16852;51.446;6.528;2022-12-29T00:49:04;0.95;;;0.45;;
27857;SDS011;16852;51.446;6.528;2022-12-29T00:51:25;1.23;;;0.70;;
27857;SDS011;16852;51.446;6.528;2022-12-29T00:53:25;0.82;;;0.40;;
27857;SDS011;16852;51.446;6.528;2022-12-29T00:55:26;0.50;;;0.40;;
27857;SDS011;16852;51.446;6.528;2022-12-29T00:57:26;0.30;;;0.30;;
27857;SDS011;16852;51.446;6.528;2022-12-29T00:59:27;0.47;;;0.40;;
27857;SDS011;16852;51.446;6.528;2022-12-29T01:01:27;0.55;;;0.32;;
27857;SDS011;16852;51.446;6.528;2022-12-29T01:03:28;0.77;;;0.30;;
27857;SDS011;16852;51.446;6.528;2022-12-29T01:05:29;1.02;;;0.65;;
27857;SDS011;16852;51.446;6.528;2022-12-29T01:07:29;0.70;;;0.32;;
27857;SDS011;16852;51.446;6.528;2022-12-29T01:09:30;0.40;;;0.30;;
27857;SDS011;16852;51.446;6.528;2022-12-29T01:11:50;0.50;;;0.40;;
27857;SDS011;16852;51.446;6.528;2022-12-29T01:13:51;0.50;;;0.30;;
27857;SDS011;16852;51.446;6.528;2022-12-29T01:15:52;0.60;;;0.40;;
27857;SDS011;16852;51.446;6.528;2022-12-29T01:17:54;0.40;;;0.30;;
27857;SDS011;16852;51.446;6.528;2022-12-29T01:19:54;0.63;;;0.45;;
27857;SDS011;16852;51.446;6.528;2022-12-29T01:21:55;0.40;;;0.40;;
27857;SDS011;16852;51.446;6.528;2022-12-29T01:23:56;1.10;;;0.40;;
27857;SDS011;16852;51.446;6.528;2022-12-29T01:25:57;0.73;;;0.47;;
27857;SDS011;16852;51.446;6.528;2022-12-29T01:27:57;0.50;;;0.50;;
27857;SDS011;16852;51.446;6.528;2022-12-29T01:29:58;0.82;;;0.25;;
27857;SDS011;16852;51.446;6.528;2022-12-29T01:31:58;0.57;;;0.40;;
27857;SDS011;16852;51.446;6.528;2022-12-29T01:33:59;2.70;;;0.50;;
27857;SDS011;16852;51.446;6.528;2022-12-29T01:36:00;1.58;;;0.45;;
27857;SDS011;16852;51.446;6.528;2022-12-29T01:38:01;0.63;;;0.40;;
27857;SDS011;16852;51.446;6.528;2022-12-29T01:40:02;0.40;;;0.40;;
27857;SDS011;16852;51.446;6.528;2022-12-29T01:42:04;0.30;;;0.30;;
27857;SDS011;16852;51.446;6.528;2022-12-29T01:46:48;0.70;;;0.30;;
27857;SDS011;16852;51.446;6.528;2022-12-29T01:48:55;0.52;;;0.32;;
27857;SDS011;16852;51.446;6.528;2022-12-29T01:51:07;1.55;;;0.50;;
27857;SDS011;16852;51.446;6.528;2022-12-29T01:53:09;0.50;;;0.40;;
27857;SDS011;16852;51.446;6.528;2022-12-29T01:55:13;0.57;;;0.43;;
27857;SDS011;16852;51.446;6.528;2022-12-29T01:57:16;0.57;;;0.40;;
27857;SDS011;16852;51.446;6.528;2022-12-29T01:59:22;1.10;;;0.40;;
27857;SDS011;16852;51.446;6.528;2022-12-29T02:01:31;0.73;;;0.40;;
27857;SDS011;16852;51.446;6.528;2022-12-29T02:03:32;4.40;;;0.55;;
27857;SDS011;16852;51.446;6.528;2022-12-29T02:05:44;0.32;;;0.30;;
27857;SDS011;16852;51.446;6.528;2022-12-29T02:07:50;1.08;;;0.52;;
27857;SDS011;16852;51.446;6.528;2022-12-29T02:09:51;1.48;;;0.50;;
27857;SDS011;16852;51.446;6.528;2022-12-29T02:11:54;2.03;;;0.50;;
27857;SDS011;16852;51.446;6.528;2022-12-29T02:13:56;0.60;;;0.50;;
27857;SDS011;16852;51.446;6.528;2022-12-29T02:18:25;0.77;;;0.60;;
27857;SDS011;16852;51.446;6.528;2022-12-29T02:27:50;1.67;;;0.50;;
27857;SDS011;16852;51.446;6.528;2022-12-29T02:30:02;0.98;;;0.68;;
27857;SDS011;16852;51.446;6.528;2022-12-29T02:32:08;4.05;;;0.60;;
27857;SDS011;16852;51.446;6.528;2022-12-29T02:41:49;0.93;;;0.50;;
27857;SDS011;16852;51.446;6.528;2022-12-29T02:44:14;1.75;;;0.65;;
27857;SDS011;16852;51.446;6.528;2022-12-29T02:48:56;1.08;;;0.60;;
27857;SDS011;16852;51.446;6.528;2022-12-29T02:53:15;1.27;;;0.50;;
27857;SDS011;16852;51.446;6.528;2022-12-29T02:55:38;1.80;;;0.77;;
27857;SDS011;16852;51.446;6.528;2022-12-29T02:59:42;2.10;;;0.68;;
27857;SDS011;16852;51.446;6.528;2022-12-29T03:04:30;3.92;;;1.00;;
27857;SDS011;16852;51.446;6.528;2022-12-29T03:11:04;4.75;;;0.95;;
27857;SDS011;16852;51.446;6.528;2022-12-29T03:20:36;1.70;;;0.77;;
27857;SDS011;16852;51.446;6.528;2022-12-29T03:22:42;3.15;;;0.90;;
27857;SDS011;16852;51.446;6.528;2022-12-29T03:24:46;1.75;;;0.75;;
27857;SDS011;16852;51.446;6.528;2022-12-29T03:26:50;2.50;;;1.00;;
27857;SDS011;16852;51.446;6.528;2022-12-29T03:28:54;2.00;;;0.70;;
27857;SDS011;16852;51.446;6.528;2022-12-29T03:30:57;1.80;;;0.85;;
27857;SDS011;16852;51.446;6.528;2022-12-29T03:32:59;0.88;;;0.50;;
27857;SDS011;16852;51.446;6.528;2022-12-29T03:35:04;1.55;;;0.63;;
27857;SDS011;16852;51.446;6.528;2022-12-29T03:37:16;2.13;;;0.60;;
27857;SDS011;16852;51.446;6.528;2022-12-29T03:39:21;1.20;;;0.80;;
27857;SDS011;16852;51.446;6.528;2022-12-29T03:41:24;0.75;;;0.50;;
27857;SDS011;16852;51.446;6.528;2022-12-29T03:43:28;2.08;;;0.85;;
27857;SDS011;16852;51.446;6.528;2022-12-29T03:45:29;1.60;;;0.70;;
27857;SDS011;16852;51.446;6.528;2022-12-29T03:47:30;1.00;;;0.65;;
27857;SDS011;16852;51.446;6.528;2022-12-29T03:49:31;1.40;;;0.63;;
27857;SDS011;16852;51.446;6.528;2022-12-29T03:51:31;0.60;;;0.50;;
27857;SDS011;16852;51.446;6.528;2022-12-29T03:53:32;2.50;;;0.60;;
27857;SDS011;16852;51.446;6.528;2022-12-29T03:55:32;1.90;;;0.70;;
27857;SDS011;16852;51.446;6.528;2022-12-29T03:57:33;5.28;;;0.70;;
27857;SDS011;16852;51.446;6.528;2022-12-29T03:59:34;1.38;;;0.52;;
27857;SDS011;16852;51.446;6.528;2022-12-29T04:01:34;0.50;;;0.40;;
27857;SDS011;16852;51.446;6.528;2022-12-29T04:03:35;9.48;;;0.80;;
27857;SDS011;16852;51.446;6.528;2022-12-29T04:05:35;0.90;;;0.70;;
27857;SDS011;16852;51.446;6.528;2022-12-29T04:07:36;1.67;;;0.50;;
27857;SDS011;16852;51.446;6.528;2022-12-29T04:09:36;1.35;;;0.55;;
27857;SDS011;16852;51.446;6.528;2022-12-29T04:11:37;3.42;;;0.70;;
27857;SDS011;16852;51.446;6.528;2022-12-29T04:13:38;0.80;;;0.43;;
27857;SDS011;16852;51.446;6.528;2022-12-29T04:17:42;0.85;;;0.50;;
27857;SDS011;16852;51.446;6.528;2022-12-29T04:19:43;1.80;;;0.40;;
27857;SDS011;16852;51.446;6.528;2022-12-29T04:21:43;3.17;;;0.80;;
27857;SDS011;16852;51.446;6.528;2022-12-29T04:23:44;0.90;;;0.45;;
27857;SDS011;16852;51.446;6.528;2022-12-29T04:25:45;0.82;;;0.50;;
27857;SDS011;16852;51.446;6.528;2022-12-29T04:27:47;0.70;;;0.25;;
27857;SDS011;16852;51.446;6.528;2022-12-29T04:29:47;0.57;;;0.30;;
27857;SDS011;16852;51.446;6.528;2022-12-29T04:31:48;1.30;;;0.43;;
27857;SDS011;16852;51.446;6.528;2022-12-29T04:33:48;1.98;;;0.65;;
27857;SDS011;16852;51.446;6.528;2022-12-29T04:35:49;3.05;;;0.75;;
27857;SDS011;16852;51.446;6.528;2022-12-29T04:37:50;3.38;;;0.90;;
27857;SDS011;16852;51.446;6.528;2022-12-29T04:39:50;1.42;;;0.70;;
27857;SDS011;16852;51.446;6.528;2022-12-29T04:41:51;2.58;;;0.85;;
27857;SDS011;16852;51.446;6.528;2022-12-29T04:43:51;1.38;;;0.50;;
27857;SDS011;16852;51.446;6.528;2022-12-29T04:45:52;8.48;;;1.20;;
27857;SDS011;16852;51.446;6.528;2022-12-29T04:47:52;1.23;;;0.40;;
27857;SDS011;16852;51.446;6.528;2022-12-29T04:49:53;2.65;;;0.50;;
27857;SDS011;16852;51.446;6.528;2022-12-29T04:51:54;2.53;;;0.40;;
27857;SDS011;16852;51.446;6.528;2022-12-29T04:53:54;1.98;;;0.50;;
27857;SDS011;16852;51.446;6.528;2022-12-29T04:55:55;4.22;;;0.63;;
27857;SDS011;16852;51.446;6.528;2022-12-29T04:57:55;1.67;;;0.55;;
27857;SDS011;16852;51.446;6.528;2022-12-29T04:59:56;0.47;;;0.30;;
27857;SDS011;16852;51.446;6.528;2022-12-29T05:01:56;1.45;;;0.50;;
27857;SDS011;16852;51.446;6.528;2022-12-29T05:03:57;2.13;;;0.50;;
27857;SDS011;16852;51.446;6.528;2022-12-29T05:05:57;0.82;;;0.28;;
27857;SDS011;16852;51.446;6.528;2022-12-29T05:07:58;1.42;;;0.50;;
27857;SDS011;16852;51.446;6.528;2022-12-29T05:09:59;3.10;;;0.40;;
27857;SDS011;16852;51.446;6.528;2022-12-29T05:11:59;2.78;;;0.75;;
27857;SDS011;16852;51.446;6.528;2022-12-29T05:14:00;3.50;;;0.60;;
27857;SDS011;16852;51.446;6.528;2022-12-29T05:16:01;0.95;;;0.35;;
27857;SDS011;16852;51.446;6.528;2022-12-29T05:18:01;0.80;;;0.50;;
27857;SDS011;16852;51.446;6.528;2022-12-29T05:20:03;1.02;;;0.25;;
27857;SDS011;16852;51.446;6.528;2022-12-29T05:24:05;0.60;;;0.20;;
27857;SDS011;16852;51.446;6.528;2022-12-29T05:26:06;2.28;;;0.70;;
27857;SDS011;16852;51.446;6.528;2022-12-29T05:28:06;2.17;;;0.50;;
27857;SDS011;16852;51.446;6.528;2022-12-29T05:30:07;2.42;;;0.50;;
27857;SDS011;16852;51.446;6.528;2022-12-29T05:32:08;3.33;;;0.55;;
27857;SDS011;16852;51.446;6.528;2022-12-29T05:34:12;1.27;;;0.60;;
27857;SDS011;16852;51.446;6.528;2022-12-29T05:36:13;1.33;;;0.57;;
27857;SDS011;16852;51.446;6.528;2022-12-29T05:38:13;3.15;;;0.52;;
27857;SDS011;16852;51.446;6.528;2022-12-29T05:40:14;2.40;;;1.00;;
27857;SDS011;16852;51.446;6.528;2022-12-29T05:42:15;1.58;;;0.80;;
27857;SDS011;16852;51.446;6.528;2022-12-29T05:44:15;3.10;;;0.75;;
27857;SDS011;16852;51.446;6.528;2022-12-29T05:46:16;3.88;;;0.90;;
27857;SDS011;16852;51.446;6.528;2022-12-29T05:48:16;4.78;;;1.27;;
27857;SDS011;16852;51.446;6.528;2022-12-29T05:50:17;2.25;;;0.55;;
27857;SDS011;16852;51.446;6.528;2022-12-29T05:52:17;5.32;;;0.90;;
27857;SDS011;16852;51.446;6.528;2022-12-29T05:54:18;5.38;;;1.10;;
27857;SDS011;16852;51.446;6.528;2022-12-29T05:56:18;3.40;;;0.63;;
27857;SDS011;16852;51.446;6.528;2022-12-29T05:58:19;2.67;;;0.63;;
27857;SDS011;16852;51.446;6.528;2022-12-29T06:00:20;2.10;;;0.52;;
27857;SDS011;16852;51.446;6.528;2022-12-29T06:02:20;2.75;;;0.75;;
27857;SDS011;16852;51.446;6.528;2022-12-29T06:04:21;3.40;;;0.75;;
27857;SDS011;16852;51.446;6.528;2022-12-29T06:06:21;4.40;;;0.70;;
27857;SDS011;16852;51.446;6.528;2022-12-29T06:08:22;2.47;;;0.90;;
27857;SDS011;16852;51.446;6.528;2022-12-29T06:10:23;1.70;;;0.55;;
27857;SDS011;16852;51.446;6.528;2022-12-29T06:12:23;2.13;;;0.60;;
27857;SDS011;16852;51.446;6.528;2022-12-29T06:14:24;6.60;;;0.65;;
27857;SDS011;16852;51.446;6.528;2022-12-29T06:16:24;1.77;;;0.73;;
27857;SDS011;16852;51.446;6.528;2022-12-29T06:18:25;1.08;;;0.47;;
27857;SDS011;16852;51.446;6.528;2022-12-29T06:20:25;1.85;;;0.50;;
27857;SDS011;16852;51.446;6.528;2022-12-29T06:22:26;3.00;;;0.68;;
27857;SDS011;16852;51.446;6.528;2022-12-29T06:24:27;3.53;;;0.90;;
27857;SDS011;16852;51.446;6.528;2022-12-29T06:26:27;1.70;;;0.50;;
27857;SDS011;16852;51.446;6.528;2022-12-29T06:28:28;1.08;;;0.40;;
27857;SDS011;16852;51.446;6.528;2022-12-29T06:30:28;3.42;;;0.65;;
27857;SDS011;16852;51.446;6.528;2022-12-29T06:32:29;1.13;;;0.60;;
27857;SDS011;16852;51.446;6.528;2022-12-29T06:34:30;3.70;;;0.80;;
27857;SDS011;16852;51.446;6.528;2022-12-29T06:36:30;3.25;;;0.82;;
27857;SDS011;16852;51.446;6.528;2022-12-29T06:38:31;3.08;;;1.00;;
27857;SDS011;16852;51.446;6.528;2022-12-29T06:40:31;4.28;;;0.73;;
27857;SDS011;16852;51.446;6.528;2022-12-29T06:42:32;3.42;;;1.00;;
27857;SDS011;16852;51.446;6.528;2022-12-29T06:44:32;2.17;;;0.60;;
27857;SDS011;16852;51.446;6.528;2022-12-29T06:46:33;3.53;;;0.70;;
27857;SDS011;16852;51.446;6.528;2022-12-29T06:48:34;3.05;;;0.90;;
27857;SDS011;16852;51.446;6.528;2022-12-29T06:50:34;1.67;;;0.52;;
27857;SDS011;16852;51.446;6.528;2022-12-29T06:52:35;3.25;;;0.90;;
27857;SDS011;16852;51.446;6.528;2022-12-29T06:54:35;2.95;;;0.80;;
27857;SDS011;16852;51.446;6.528;2022-12-29T06:56:36;2.40;;;0.70;;
27857;SDS011;16852;51.446;6.528;2022-12-29T06:58:36;5.03;;;1.00;;
27857;SDS011;16852;51.446;6.528;2022-12-29T07:00:37;3.40;;;0.80;;
27857;SDS011;16852;51.446;6.528;2022-12-29T07:02:38;3.38;;;0.95;;
27857;SDS011;16852;51.446;6.528;2022-12-29T07:04:38;1.27;;;0.50;;
27857;SDS011;16852;51.446;6.528;2022-12-29T07:06:39;4.30;;;0.60;;
27857;SDS011;16852;51.446;6.528;2022-12-29T07:08:40;7.00;;;0.77;;
27857;SDS011;16852;51.446;6.528;2022-12-29T07:10:41;5.75;;;1.08;;
27857;SDS011;16852;51.446;6.528;2022-12-29T07:12:41;3.38;;;0.80;;
27857;SDS011;16852;51.446;6.528;2022-12-29T07:14:42;2.15;;;0.85;;
27857;SDS011;16852;51.446;6.528;2022-12-29T07:16:42;6.72;;;1.20;;
27857;SDS011;16852;51.446;6.528;2022-12-29T07:18:43;3.60;;;1.02;;
27857;SDS011;16852;51.446;6.528;2022-12-29T07:20:43;3.10;;;0.88;;
27857;SDS011;16852;51.446;6.528;2022-12-29T07:22:44;4.63;;;1.02;;
27857;SDS011;16852;51.446;6.528;2022-12-29T07:24:47;6.47;;;1.10;;
27857;SDS011;16852;51.446;6.528;2022-12-29T07:26:47;2.13;;;0.73;;
27857;SDS011;16852;51.446;6.528;2022-12-29T07:28:48;4.05;;;0.70;;
27857;SDS011;16852;51.446;6.528;2022-12-29T07:30:48;4.00;;;0.90;;
27857;SDS011;16852;51.446;6.528;2022-12-29T07:32:49;4.88;;;1.05;;
27857;SDS011;16852;51.446;6.528;2022-12-29T07:34:49;3.67;;;0.88;;
27857;SDS011;16852;51.446;6.528;2022-12-29T07:36:50;3.70;;;1.05;;
27857;SDS011;16852;51.446;6.528;2022-12-29T07:38:50;4.47;;;1.27;;
27857;SDS011;16852;51.446;6.528;2022-12-29T07:40:55;7.85;;;1.55;;
27857;SDS011;16852;51.446;6.528;2022-12-29T07:42:56;5.68;;;1.10;;
27857;SDS011;16852;51.446;6.528;2022-12-29T07:44:57;5.30;;;1.23;;
27857;SDS011;16852;51.446;6.528;2022-12-29T07:46:58;5.32;;;1.25;;
27857;SDS011;16852;51.446;6.528;2022-12-29T07:48:58;5.80;;;1.20;;
27857;SDS011;16852;51.446;6.528;2022-12-29T07:50:59;2.67;;;1.08;;
27857;SDS011;16852;51.446;6.528;2022-12-29T07:53:00;6.70;;;1.10;;
27857;SDS011;16852;51.446;6.528;2022-12-29T07:55:01;3.85;;;1.10;;
27857;SDS011;16852;51.446;6.528;2022-12-29T07:57:01;5.25;;;1.42;;
27857;SDS011;16852;51.446;6.528;2022-12-29T07:59:02;7.30;;;1.60;;
27857;SDS011;16852;51.446;6.528;2022-12-29T08:01:03;6.30;;;1.40;;
27857;SDS011;16852;51.446;6.528;2022-12-29T08:03:05;6.00;;;1.33;;
27857;SDS011;16852;51.446;6.528;2022-12-29T08:05:06;7.47;;;1.67;;
27857;SDS011;16852;51.446;6.528;2022-12-29T08:07:06;6.80;;;1.55;;
27857;SDS011;16852;51.446;6.528;2022-12-29T08:09:07;6.10;;;1.38;;
27857;SDS011;16852;51.446;6.528;2022-12-29T08:11:08;6.60;;;1.38;;
27857;SDS011;16852;51.446;6.528;2022-12-29T08:13:08;6.22;;;1.10;;
27857;SDS011;16852;51.446;6.528;2022-12-29T08:15:10;3.35;;;1.00;;
27857;SDS011;16852;51.446;6.528;2022-12-29T08:17:12;6.38;;;1.38;;
27857;SDS011;16852;51.446;6.528;2022-12-29T08:19:12;5.55;;;1.33;;
27857;SDS011;16852;51.446;6.528;2022-12-29T08:21:13;5.72;;;1.30;;
27857;SDS011;16852;51.446;6.528;2022-12-29T08:23:13;3.97;;;1.15;;
27857;SDS011;16852;51.446;6.528;2022-12-29T08:25:14;6.10;;;1.45;;
27857;SDS011;16852;51.446;6.528;2022-12-29T08:27:15;6.05;;;1.40;;
27857;SDS011;16852;51.446;6.528;2022-12-29T08:29:15;4.07;;;1.20;;
27857;SDS011;16852;51.446;6.528;2022-12-29T08:31:16;4.78;;;1.23;;
27857;SDS011;16852;51.446;6.528;2022-12-29T08:33:17;6.10;;;1.23;;
27857;SDS011;16852;51.446;6.528;2022-12-29T08:35:18;4.57;;;1.30;;
27857;SDS011;16852;51.446;6.528;2022-12-29T08:37:18;4.82;;;1.42;;
27857;SDS011;16852;51.446;6.528;2022-12-29T08:39:19;8.98;;;1.60;;
27857;SDS011;16852;51.446;6.528;2022-12-29T08:41:20;7.30;;;1.40;;
27857;SDS011;16852;51.446;6.528;2022-12-29T08:43:20;7.25;;;1.42;;
27857;SDS011;16852;51.446;6.528;2022-12-29T08:45:21;7.10;;;1.48;;
27857;SDS011;16852;51.446;6.528;2022-12-29T08:47:21;4.95;;;1.30;;
27857;SDS011;16852;51.446;6.528;2022-12-29T08:49:22;6.43;;;1.58;;
27857;SDS011;16852;51.446;6.528;2022-12-29T08:51:22;7.13;;;1.45;;
27857;SDS011;16852;51.446;6.528;2022-12-29T08:53:23;6.10;;;1.42;;
27857;SDS011;16852;51.446;6.528;2022-12-29T08:55:24;5.35;;;1.55;;
27857;SDS011;16852;51.446;6.528;2022-12-29T08:57:24;5.15;;;1.15;;
27857;SDS011;16852;51.446;6.528;2022-12-29T08:59:25;7.03;;;1.42;;
27857;SDS011;16852;51.446;6.528;2022-12-29T09:01:25;4.05;;;1.27;;
27857;SDS011;16852;51.446;6.528;2022-12-29T09:03:26;5.45;;;1.50;;
27857;SDS011;16852;51.446;6.528;2022-12-29T09:05:27;9.50;;;1.88;;
27857;SDS011;16852;51.446;6.528;2022-12-29T09:07:27;4.90;;;1.48;;
27857;SDS011;16852;51.446;6.528;2022-12-29T09:09:28;6.65;;;1.50;;
27857;SDS011;16852;51.446;6.528;2022-12-29T09:11:28;8.48;;;1.40;;
27857;SDS011;16852;51.446;6.528;2022-12-29T09:13:29;6.22;;;1.23;;
27857;SDS011;16852;51.446;6.528;2022-12-29T09:15:29;5.90;;;1.30;;
27857;SDS011;16852;51.446;6.528;2022-12-29T09:17:30;4.47;;;1.60;;
27857;SDS011;16852;51.446;6.528;2022-12-29T09:19:46;5.22;;;1.52;;
27857;SDS011;16852;51.446;6.528;2022-12-29T09:21:47;7.90;;;1.88;;
27857;SDS011;16852;51.446;6.528;2022-12-29T09:23:47;5.75;;;1.58;;
27857;SDS011;16852;51.446;6.528;2022-12-29T09:25:48;4.57;;;1.30;;
27857;SDS011;16852;51.446;6.528;2022-12-29T09:27:49;9.25;;;2.00;;
27857;SDS011;16852;51.446;6.528;2022-12-29T09:29:50;5.95;;;1.63;;
27857;SDS011;16852;51.446;6.528;2022-12-29T09:31:50;6.63;;;1.63;;
27857;SDS011;16852;51.446;6.528;2022-12-29T09:33:51;9.77;;;1.92;;
27857;SDS011;16852;51.446;6.528;2022-12-29T09:35:52;6.10;;;1.58;;
27857;SDS011;16852;51.446;6.528;2022-12-29T09:37:55;8.95;;;1.85;;
27857;SDS011;16852;51.446;6.528;2022-12-29T09:39:55;7.68;;;1.70;;
27857;SDS011;16852;51.446;6.528;2022-12-29T09:42:13;4.57;;;1.67;;
27857;SDS011;16852;51.446;6.528;2022-12-29T09:44:35;7.90;;;1.63;;
27857;SDS011;16852;51.446;6.528;2022-12-29T09:46:44;9.77;;;2.20;;
27857;SDS011;16852;51.446;6.528;2022-12-29T09:48:49;5.75;;;1.52;;
27857;SDS011;16852;51.446;6.528;2022-12-29T09:50:57;5.13;;;1.50;;
27857;SDS011;16852;51.446;6.528;2022-12-29T09:53:05;7.68;;;1.80;;
27857;SDS011;16852;51.446;6.528;2022-12-29T09:55:17;7.88;;;1.70;;
27857;SDS011;16852;51.446;6.528;2022-12-29T09:57:23;5.40;;;1.17;;
27857;SDS011;16852;51.446;6.528;2022-12-29T09:59:36;5.95;;;1.70;;
27857;SDS011;16852;51.446;6.528;2022-12-29T10:03:57;10.52;;;1.88;;
27857;SDS011;16852;51.446;6.528;2022-12-29T10:10:28;6.80;;;1.15;;
27857;SDS011;16852;51.446;6.528;2022-12-29T10:12:55;8.98;;;1.58;;
27857;SDS011;16852;51.446;6.528;2022-12-29T10:15:35;5.63;;;1.67;;
27857;SDS011;16852;51.446;6.528;2022-12-29T10:17:58;4.25;;;1.38;;
27857;SDS011;16852;51.446;6.528;2022-12-29T10:20:27;6.88;;;1.40;;
27857;SDS011;16852;51.446;6.528;2022-12-29T10:24:39;6.22;;;1.40;;
27857;SDS011;16852;51.446;6.528;2022-12-29T10:26:41;8.33;;;2.10;;
27857;SDS011;16852;51.446;6.528;2022-12-29T10:30:44;9.52;;;1.95;;
27857;SDS011;16852;51.446;6.528;2022-12-29T10:34:59;4.75;;;1.42;;
27857;SDS011;16852;51.446;6.528;2022-12-29T10:37:08;6.88;;;1.80;;
27857;SDS011;16852;51.446;6.528;2022-12-29T10:39:30;6.30;;;1.60;;
27857;SDS011;16852;51.446;6.528;2022-12-29T10:41:41;7.38;;;1.88;;
27857;SDS011;16852;51.446;6.528;2022-12-29T10:43:52;3.58;;;1.55;;
27857;SDS011;16852;51.446;6.528;2022-12-29T10:45:56;7.45;;;1.80;;
27857;SDS011;16852;51.446;6.528;2022-12-29T10:48:02;6.35;;;1.65;;
27857;SDS011;16852;51.446;6.528;2022-12-29T10:50:11;11.77;;;2.00;;
27857;SDS011;16852;51.446;6.528;2022-12-29T10:52:13;10.60;;;1.90;;
27857;SDS011;16852;51.446;6.528;2022-12-29T10:58:35;9.32;;;1.98;;
27857;SDS011;16852;51.446;6.528;2022-12-29T11:00:36;9.20;;;1.95;;
27857;SDS011;16852;51.446;6.528;2022-12-29T11:02:43;9.23;;;1.98;;
27857;SDS011;16852;51.446;6.528;2022-12-29T11:07:07;5.35;;;1.58;;
27857;SDS011;16852;51.446;6.528;2022-12-29T11:09:12;9.48;;;1.90;;
27857;SDS011;16852;51.446;6.528;2022-12-29T11:11:21;7.35;;;1.38;;
27857;SDS011;16852;51.446;6.528;2022-12-29T11:13:28;8.77;;;1.77;;
27857;SDS011;16852;51.446;6.528;2022-12-29T11:15:43;5.20;;;1.67;;
27857;SDS011;16852;51.446;6.528;2022-12-29T11:19:50;9.13;;;1.65;;
27857;SDS011;16852;51.446;6.528;2022-12-29T11:21:51;9.85;;;2.75;;
27857;SDS011;16852;51.446;6.528;2022-12-29T11:23:56;10.27;;;1.95;;
27857;SDS011;16852;51.446;6.528;2022-12-29T11:28:16;5.07;;;1.40;;
27857;SDS011;16852;51.446;6.528;2022-12-29T11:30:23;7.63;;;2.20;;
27857;SDS011;16852;51.446;6.528;2022-12-29T11:32:26;4.53;;;1.55;;
27857;SDS011;16852;51.446;6.528;2022-12-29T11:34:33;7.25;;;1.75;;
27857;SDS011;16852;51.446;6.528;2022-12-29T11:36:35;9.85;;;2.10;;
27857;SDS011;16852;51.446;6.528;2022-12-29T11:38:42;5.55;;;1.48;;
27857;SDS011;16852;51.446;6.528;2022-12-29T11:40:47;8.82;;;1.80;;
27857;SDS011;16852;51.446;6.528;2022-12-29T11:42:55;8.15;;;2.13;;
27857;SDS011;16852;51.446;6.528;2022-12-29T11:47:25;7.45;;;1.45;;
27857;SDS011;16852;51.446;6.528;2022-12-29T11:49:28;6.15;;;1.10;;
27857;SDS011;16852;51.446;6.528;2022-12-29T11:51:41;7.93;;;1.85;;
27857;SDS011;16852;51.446;6.528;2022-12-29T11:53:46;8.45;;;1.60;;
27857;SDS011;16852;51.446;6.528;2022-12-29T11:55:53;7.88;;;1.92;;
27857;SDS011;16852;51.446;6.528;2022-12-29T11:57:57;9.23;;;1.60;;
27857;SDS011;16852;51.446;6.528;2022-12-29T12:00:14;6.28;;;1.90;;
27857;SDS011;16852;51.446;6.528;2022-12-29T12:04:24;7.80;;;1.55;;
27857;SDS011;16852;51.446;6.528;2022-12-29T12:06:28;6.80;;;1.55;;
27857;SDS011;16852;51.446;6.528;2022-12-29T12:08:38;7.57;;;1.80;;
27857;SDS011;16852;51.446;6.528;2022-12-29T12:10:50;13.43;;;2.58;;
27857;SDS011;16852;51.446;6.528;2022-12-29T12:13:06;6.10;;;1.60;;
27857;SDS011;16852;51.446;6.528;2022-12-29T12:15:20;9.25;;;1.73;;
27857;SDS011;16852;51.446;6.528;2022-12-29T12:19:40;10.23;;;2.08;;
27857;SDS011;16852;51.446;6.528;2022-12-29T12:21:45;7.72;;;1.85;;
27857;SDS011;16852;51.446;6.528;2022-12-29T12:23:59;6.32;;;1.77;;
27857;SDS011;16852;51.446;6.528;2022-12-29T12:26:31;6.07;;;1.45;;
27857;SDS011;16852;51.446;6.528;2022-12-29T12:28:48;8.68;;;1.90;;
27857;SDS011;16852;51.446;6.528;2022-12-29T12:31:34;12.38;;;2.38;;
27857;SDS011;16852;51.446;6.528;2022-12-29T12:33:50;5.70;;;1.63;;
27857;SDS011;16852;51.446;6.528;2022-12-29T12:39:11;8.85;;;1.63;;
27857;SDS011;16852;51.446;6.528;2022-12-29T12:45:59;5.78;;;1.50;;
27857;SDS011;16852;51.446;6.528;2022-12-29T12:50:45;6.55;;;1.73;;
27857;SDS011;16852;51.446;6.528;2022-12-29T12:53:19;8.65;;;2.05;;
27857;SDS011;16852;51.446;6.528;2022-12-29T13:00:14;9.82;;;2.22;;
27857;SDS011;16852;51.446;6.528;2022-12-29T13:02:25;6.47;;;1.55;;
27857;SDS011;16852;51.446;6.528;2022-12-29T13:04:52;6.30;;;1.58;;
27857;SDS011;16852;51.446;6.528;2022-12-29T13:09:49;6.65;;;2.15;;
27857;SDS011;16852;51.446;6.528;2022-12-29T13:14:30;5.53;;;1.73;;
27857;SDS011;16852;51.446;6.528;2022-12-29T13:19:01;7.97;;;1.83;;
27857;SDS011;16852;51.446;6.528;2022-12-29T13:23:37;7.70;;;2.05;;
27857;SDS011;16852;51.446;6.528;2022-12-29T13:25:48;6.70;;;1.85;;
27857;SDS011;16852;51.446;6.528;2022-12-29T13:30:19;4.82;;;1.17;;
27857;SDS011;16852;51.446;6.528;2022-12-29T13:37:13;12.00;;;2.00;;
27857;SDS011;16852;51.446;6.528;2022-12-29T13:41:41;5.93;;;1.73;;
27857;SDS011;16852;51.446;6.528;2022-12-29T13:43:45;6.65;;;1.88;;
27857;SDS011;16852;51.446;6.528;2022-12-29T13:45:55;9.25;;;2.10;;
27857;SDS011;16852;51.446;6.528;2022-12-29T13:48:03;6.32;;;1.45;;
27857;SDS011;16852;51.446;6.528;2022-12-29T13:50:14;7.43;;;1.65;;
27857;SDS011;16852;51.446;6.528;2022-12-29T13:54:55;8.82;;;2.13;;
27857;SDS011;16852;51.446;6.528;2022-12-29T13:57:06;7.18;;;1.95;;
27857;SDS011;16852;51.446;6.528;2022-12-29T14:03:43;8.75;;;1.83;;
27857;SDS011;16852;51.446;6.528;2022-12-29T14:05:44;8.13;;;1.75;;
27857;SDS011;16852;51.446;6.528;2022-12-29T14:08:05;8.70;;;1.77;;
27857;SDS011;16852;51.446;6.528;2022-12-29T14:12:38;8.90;;;2.10;;
27857;SDS011;16852;51.446;6.528;2022-12-29T14:14:41;4.68;;;1.63;;
27857;SDS011;16852;51.446;6.528;2022-12-29T14:16:42;6.25;;;1.77;;
27857;SDS011;16852;51.446;6.528;2022-12-29T14:18:43;7.10;;;2.05;;
27857;SDS011;16852;51.446;6.528;2022-12-29T14:28:15;8.48;;;1.90;;
27857;SDS011;16852;51.446;6.528;2022-12-29T14:30:45;8.82;;;1.50;;
27857;SDS011;16852;51.446;6.528;2022-12-29T14:33:01;4.97;;;1.38;;
27857;SDS011;16852;51.446;6.528;2022-12-29T14:37:49;6.30;;;1.58;;
27857;SDS011;16852;51.446;6.528;2022-12-29T14:40:22;5.55;;;1.38;;
27857;SDS011;16852;51.446;6.528;2022-12-29T14:42:26;5.47;;;1.35;;